Knittel, Iowa
Current Conditions -  °F | °C
As of 12:15 AM on Sunday 21 Dec 2014 (Local Time) from KOLZ Reporting Station
Moderate Fog Moderate Fog  
Wind Chill: 24°   Ceiling: 200
Heat Index: 32°   Visibility: 0mi
Dew Point: 32°   Wind: 10mph
Humidity: 100%   Direction: 160°SSE
Pressure: 30.11"   Gusts: NA
Location:  42.686°N, 92.1998°W
Report Text: KOLZ 210615Z AUTO 16009KT M1/4SM FG OVC002 00/00 A3011 RMK AO2
Loading
Personal Weather Stations






























Interactive Weather Map New forecast layout! Learn more

10-Day Weather Forecast

Advertisements
Track Severe Weather on mobile